Weather at Namsos Heliport, Hospital

Public forecast

Using degrees Celsius for public forecast. Weather courtesy of forecast.io.

Closest aviation weather report (METAR) to Namsos Heliport, Hospital

Report is more than 6 hours old.

Closest report is Namsos Airport, 1.9 nm (3.6 km) E.

2022/11/14 15:20 (retrieved 2 years ago)

ENNM 141520Z 05009KT 5000 BR RADZ FEW002 BKN006 05/05 Q1021

Closest aviation forecast (TAF) to Namsos Heliport, Hospital

Forecast is more than 12 hours old.

Closest forecast is Trondheim Airport, Værnes, 62.7 nm (116.1 km) SSW.

2023/02/22 18:36 (retrieved 1 year ago)

TAF ENVA 221700Z 2218/2318 VRB05KT 9999 -RA SCT008 BKN015 BECMG 2221/2223 26012KT TEMPO 2220/2224 RA BKN012 BECMG 2300/2302 FEW020TCU SCT030 TEMPO 2301/2313 26015G25KT 1000 SHSN VV008 BECMG 2313/2316 12008KT